createdAt,value
2018-12-01T00:02:21.783Z,21.17
2018-12-01T00:04:50.497Z,22.80
2018-12-01T00:07:18.364Z,22.33
2018-12-01T00:09:46.052Z,21.97
2018-12-01T00:12:13.807Z,21.93
2018-12-01T00:14:41.535Z,22.33
2018-12-01T00:17:09.219Z,22.07
2018-12-01T00:19:36.996Z,22.33
2018-12-01T00:22:05.120Z,22.10
2018-12-01T00:24:32.805Z,21.70
2018-12-01T00:27:00.512Z,22.07
2018-12-01T00:29:28.219Z,20.90
2018-12-01T00:31:55.950Z,22.33
2018-12-01T00:34:24.682Z,21.67
2018-12-01T00:36:52.358Z,22.50
2018-12-01T00:39:20.064Z,21.40
2018-12-01T00:41:47.763Z,20.70
2018-12-01T00:44:15.449Z,22.30
2018-12-01T00:46:43.223Z,21.97
2018-12-01T00:49:10.963Z,20.33
2018-12-01T00:51:38.650Z,21.47
2018-12-01T00:54:06.329Z,21.17
2018-12-01T00:56:34.071Z,21.80
2018-12-01T00:59:02.780Z,21.70
2018-12-01T01:01:30.499Z,22.07
2018-12-01T01:03:58.167Z,21.70
2018-12-01T01:06:25.855Z,21.17
2018-12-01T01:08:53.571Z,21.70
2018-12-01T01:11:21.255Z,21.33
2018-12-01T01:13:48.935Z,23.03
2018-12-01T01:16:16.736Z,20.60
2018-12-01T01:18:44.460Z,21.07
2018-12-01T01:21:12.194Z,22.03
2018-12-01T01:23:39.880Z,21.13
2018-12-01T01:26:07.556Z,21.23
2018-12-01T01:28:35.324Z,20.13
2018-12-01T01:31:03.071Z,23.80
2018-12-01T01:33:30.840Z,22.40
2018-12-01T01:35:58.608Z,23.27
2018-12-01T01:38:26.342Z,22.50
2018-12-01T01:40:59.444Z,24.30
2018-12-01T01:43:27.107Z,22.33
2018-12-01T01:45:54.812Z,22.63
2018-12-01T01:48:22.563Z,23.90
2018-12-01T01:50:50.303Z,23.87
2018-12-01T01:53:17.968Z,22.53
2018-12-01T01:55:45.733Z,22.10
2018-12-01T01:58:13.547Z,23.77
2018-12-01T02:00:41.282Z,22.73
2018-12-01T02:03:09.002Z,22.20
2018-12-01T02:05:37.724Z,23.10
2018-12-01T02:08:05.485Z,22.67
2018-12-01T02:10:34.172Z,21.77
2018-12-01T02:13:01.895Z,22.77
2018-12-01T02:15:29.579Z,25.17
2018-12-01T02:17:57.255Z,22.93
2018-12-01T02:20:25.032Z,22.67
2018-12-01T02:22:52.738Z,23.03
2018-12-01T02:25:20.460Z,22.70
2018-12-01T02:27:48.180Z,23.33
2018-12-01T02:30:16.401Z,23.17
2018-12-01T02:32:44.185Z,23.57
2018-12-01T02:35:12.671Z,22.97
2018-12-01T02:37:40.405Z,22.80
2018-12-01T02:40:08.779Z,22.83
2018-12-01T02:42:36.564Z,21.20
2018-12-01T02:45:09.977Z,24.70
2018-12-01T02:47:37.717Z,22.40
2018-12-01T02:50:06.529Z,23.20
2018-12-01T02:52:34.265Z,22.73
2018-12-01T02:55:02.018Z,23.53
2018-12-01T02:57:29.747Z,23.40
2018-12-01T02:59:57.460Z,24.97
2018-12-01T03:02:26.086Z,24.37
2018-12-01T03:04:53.772Z,23.93
2018-12-01T03:07:21.563Z,23.50
2018-12-01T03:09:49.329Z,24.63
2018-12-01T03:12:17.118Z,24.97
2018-12-01T03:14:44.856Z,25.50
2018-12-01T03:17:12.579Z,25.10
2018-12-01T03:19:40.251Z,25.07
2018-12-01T03:22:07.912Z,25.17
2018-12-01T03:24:35.583Z,23.90
2018-12-01T03:27:03.659Z,23.47
2018-12-01T03:29:31.420Z,24.13
2018-12-01T03:31:59.072Z,25.00
2018-12-01T03:34:26.771Z,24.43
2018-12-01T03:36:54.567Z,24.10
2018-12-01T03:39:22.301Z,24.73
2018-12-01T03:41:50.031Z,23.33
2018-12-01T03:44:17.710Z,24.33
2018-12-01T03:46:45.493Z,25.73
2018-12-01T03:49:13.248Z,24.23
2018-12-01T03:51:40.971Z,26.50
2018-12-01T03:54:08.680Z,25.47
2018-12-01T03:56:36.443Z,24.80
2018-12-01T03:59:04.564Z,25.20
2018-12-01T04:01:32.240Z,25.67
2018-12-01T04:03:59.944Z,27.13
2018-12-01T04:06:28.717Z,27.80
2018-12-01T04:08:56.455Z,26.33
2018-12-01T04:11:24.152Z,27.53
2018-12-01T04:13:51.915Z,25.77
2018-12-01T04:16:19.668Z,25.17
2018-12-01T04:18:47.415Z,27.23
2018-12-01T04:21:15.093Z,26.70
2018-12-01T04:23:42.785Z,29.53
2018-12-01T04:26:10.499Z,25.73
2018-12-01T04:28:38.171Z,26.93
2018-12-01T04:31:05.860Z,26.40
2018-12-01T04:33:33.612Z,27.67
2018-12-01T04:36:01.264Z,26.33
2018-12-01T04:38:28.971Z,26.03
2018-12-01T04:40:56.683Z,25.77
2018-12-01T04:43:24.400Z,27.20
2018-12-01T04:45:52.132Z,27.97
2018-12-01T04:48:20.783Z,27.30
2018-12-01T04:50:48.493Z,28.80
2018-12-01T04:53:16.211Z,29.03
2018-12-01T04:55:43.932Z,27.97
2018-12-01T04:58:11.638Z,27.70
2018-12-01T05:00:39.345Z,30.33
2018-12-01T05:03:07.067Z,29.47
2018-12-01T05:05:34.743Z,30.30
2018-12-01T05:08:02.512Z,29.60
2018-12-01T05:10:30.248Z,26.53
2018-12-01T05:12:57.960Z,27.20
2018-12-01T05:15:25.797Z,27.63
2018-12-01T05:17:53.476Z,25.50
2018-12-01T05:20:22.616Z,25.67
2018-12-01T05:22:50.812Z,25.90
2018-12-01T05:25:18.524Z,26.40
2018-12-01T05:27:46.303Z,28.03
2018-12-01T05:30:14.052Z,26.70
2018-12-01T05:32:41.803Z,25.87
2018-12-01T05:35:10.296Z,27.23
2018-12-01T05:37:38.015Z,24.23
2018-12-01T05:40:07.288Z,24.00
2018-12-01T05:42:35.040Z,27.03
2018-12-01T05:45:02.783Z,27.07
2018-12-01T05:47:30.503Z,26.90
2018-12-01T05:49:59.216Z,26.80
2018-12-01T05:52:26.928Z,26.13
2018-12-01T05:54:54.619Z,28.83
2018-12-01T05:57:22.283Z,25.47
2018-12-01T05:59:49.963Z,27.57
2018-12-01T06:02:17.706Z,26.17
2018-12-01T06:04:45.449Z,28.77
2018-12-01T06:07:13.154Z,28.67
2018-12-01T06:09:40.836Z,27.33
2018-12-01T06:12:08.562Z,28.30
2018-12-01T06:14:36.234Z,28.90
2018-12-01T06:17:03.925Z,28.13
2018-12-01T06:19:31.654Z,27.80
2018-12-01T06:21:59.360Z,27.37
2018-12-01T06:24:27.112Z,29.20
2018-12-01T06:26:54.838Z,27.93
2018-12-01T06:29:22.523Z,28.53
2018-12-01T06:31:50.316Z,29.40
2018-12-01T06:34:18.080Z,28.30
2018-12-01T06:36:45.787Z,28.80
2018-12-01T06:39:13.507Z,29.60
2018-12-01T06:41:41.257Z,28.53
2018-12-01T06:44:08.978Z,28.97
2018-12-01T06:46:36.692Z,27.20
2018-12-01T06:49:04.468Z,27.43
2018-12-01T06:51:32.212Z,29.10
2018-12-01T06:53:59.975Z,28.50
2018-12-01T06:56:27.698Z,27.90
2018-12-01T06:58:55.404Z,28.00
2018-12-01T07:01:23.135Z,27.07
2018-12-01T07:03:50.865Z,29.00
2018-12-01T07:06:18.559Z,30.00
2018-12-01T07:08:46.261Z,28.00
2018-12-01T07:11:13.983Z,27.87
2018-12-01T07:13:41.652Z,27.97
2018-12-01T07:16:09.379Z,27.87
2018-12-01T07:18:42.912Z,28.67
2018-12-01T07:21:10.628Z,30.07
2018-12-01T07:23:38.354Z,27.80
2018-12-01T07:26:06.115Z,29.33
2018-12-01T07:28:33.785Z,29.40
2018-12-01T07:31:01.523Z,27.00
2018-12-01T07:33:29.237Z,28.20
2018-12-01T07:35:56.959Z,29.10
2018-12-01T07:38:24.623Z,27.50
2018-12-01T07:40:52.560Z,28.03
2018-12-01T07:43:20.239Z,28.50
2018-12-01T07:45:47.944Z,28.00
2018-12-01T07:48:15.752Z,26.40
2018-12-01T07:50:43.475Z,26.67
2018-12-01T07:53:11.203Z,29.40
2018-12-01T07:55:38.900Z,26.90
2018-12-01T07:58:06.638Z,26.63
2018-12-01T08:00:34.313Z,27.27
2018-12-01T08:03:02.075Z,31.27
2018-12-01T08:05:29.756Z,30.70
2018-12-01T08:07:57.475Z,32.80
2018-12-01T08:10:25.190Z,30.63
2018-12-01T08:12:52.915Z,30.03
2018-12-01T08:15:20.583Z,29.00
2018-12-01T08:17:48.264Z,28.80
2018-12-01T08:20:16.351Z,28.53
2018-12-01T08:22:44.119Z,29.17
2018-12-01T08:25:13.502Z,27.70
2018-12-01T08:27:41.280Z,28.30
2018-12-01T08:30:10.383Z,28.80
2018-12-01T08:32:38.099Z,28.40
2018-12-01T08:35:05.828Z,26.73
2018-12-01T08:37:33.547Z,28.53
2018-12-01T08:40:02.255Z,28.63
2018-12-01T08:42:29.975Z,27.33
2018-12-01T08:44:57.684Z,27.90
2018-12-01T08:47:25.428Z,26.07
2018-12-01T08:49:53.160Z,29.70
2018-12-01T08:52:20.860Z,26.90
2018-12-01T08:54:48.622Z,27.97
2018-12-01T08:57:16.377Z,27.03
2018-12-01T08:59:44.113Z,28.10
2018-12-01T09:02:11.796Z,27.00
2018-12-01T09:04:39.563Z,26.73
2018-12-01T09:07:07.348Z,26.67
2018-12-01T09:09:35.112Z,28.67
2018-12-01T09:12:02.880Z,28.33
2018-12-01T09:14:30.627Z,27.00
2018-12-01T09:16:58.428Z,28.63
2018-12-01T09:19:26.156Z,28.37
2018-12-01T09:21:53.932Z,27.07
2018-12-01T09:24:21.659Z,27.63
2018-12-01T09:26:49.390Z,27.87
2018-12-01T09:29:17.087Z,27.30
2018-12-01T09:31:44.758Z,28.00
2018-12-01T09:34:12.414Z,28.40
2018-12-01T09:36:40.101Z,28.20
2018-12-01T09:39:07.871Z,28.73
2018-12-01T09:41:35.629Z,26.53
2018-12-01T09:44:03.428Z,29.07
2018-12-01T09:46:31.160Z,30.03
2018-12-01T09:48:58.920Z,28.40
2018-12-01T09:51:26.647Z,30.23
2018-12-01T09:53:54.327Z,29.50
2018-12-01T09:56:22.109Z,28.03
2018-12-01T09:58:49.834Z,28.37
2018-12-01T10:01:17.558Z,27.67
2018-12-01T10:03:45.271Z,27.87
2018-12-01T10:06:13.026Z,28.30
2018-12-01T10:08:40.784Z,29.00
2018-12-01T10:11:08.500Z,26.00
2018-12-01T10:13:36.248Z,27.03
2018-12-01T10:16:03.983Z,29.27
2018-12-01T10:18:31.659Z,26.87
2018-12-01T10:20:59.341Z,28.73
2018-12-01T10:23:27.115Z,28.00
2018-12-01T10:25:54.879Z,26.53
2018-12-01T10:28:22.618Z,28.20
2018-12-01T10:30:50.317Z,28.37
2018-12-01T10:33:18.035Z,25.10
2018-12-01T10:35:45.776Z,26.50
2018-12-01T10:38:14.419Z,27.80
2018-12-01T10:40:42.188Z,26.10
2018-12-01T10:43:09.935Z,26.00
2018-12-01T10:45:37.788Z,24.60
2018-12-01T10:48:06.328Z,26.07
2018-12-01T10:50:34.065Z,26.50
2018-12-01T10:53:01.794Z,25.70
2018-12-01T10:55:29.956Z,24.93
2018-12-01T10:57:59.228Z,24.33
2018-12-01T11:00:32.622Z,24.67
2018-12-01T11:03:04.863Z,25.30
2018-12-01T11:05:33.092Z,23.60
2018-12-01T11:08:00.796Z,25.80
2018-12-01T11:10:28.556Z,25.30
2018-12-01T11:12:56.299Z,24.50
2018-12-01T11:15:24.000Z,25.40
2018-12-01T11:17:51.739Z,26.90
2018-12-01T11:20:19.488Z,26.10
2018-12-01T11:22:47.159Z,26.00
2018-12-01T11:25:14.965Z,24.93
2018-12-01T11:27:43.687Z,23.93
2018-12-01T11:30:13.071Z,24.10
2018-12-01T11:32:40.811Z,25.73
2018-12-01T11:35:08.612Z,25.30
2018-12-01T11:37:36.556Z,23.87
2018-12-01T11:40:08.095Z,23.53
2018-12-01T11:42:35.852Z,24.40
2018-12-01T11:45:03.695Z,25.40
2018-12-01T11:47:32.384Z,24.50
2018-12-01T11:50:01.070Z,24.73
2018-12-01T11:52:28.807Z,24.20
2018-12-01T11:54:56.540Z,24.23
2018-12-01T11:57:24.268Z,22.80
2018-12-01T11:59:52.015Z,24.83
2018-12-01T12:02:19.735Z,24.30
2018-12-01T12:04:47.435Z,24.63
2018-12-01T12:08:20.546Z,23.70
2018-12-01T12:10:48.283Z,26.43
2018-12-01T12:13:16.001Z,25.40
2018-12-01T12:15:43.777Z,26.00
2018-12-01T12:18:11.535Z,25.13
2018-12-01T12:20:39.286Z,23.33
2018-12-01T12:23:07.264Z,22.27
2018-12-01T12:25:35.046Z,23.03
2018-12-01T12:28:02.808Z,21.10
2018-12-01T12:30:30.507Z,23.60
2018-12-01T12:32:58.373Z,23.20
2018-12-01T12:35:26.132Z,22.23
2018-12-01T12:37:53.852Z,22.47
2018-12-01T12:40:23.047Z,23.27
2018-12-01T12:42:51.215Z,22.83
2018-12-01T12:45:18.948Z,22.50
2018-12-01T12:47:46.647Z,22.30
2018-12-01T12:50:14.865Z,24.10
2018-12-01T12:52:43.469Z,23.07
2018-12-01T12:55:11.167Z,24.20
2018-12-01T12:57:38.923Z,24.63
2018-12-01T13:00:15.904Z,25.50
2018-12-01T13:02:44.368Z,25.20
2018-12-01T13:05:13.575Z,25.40
2018-12-01T13:07:41.331Z,24.90
2018-12-01T13:10:09.831Z,25.03
2018-12-01T13:12:37.649Z,25.37
2018-12-01T13:15:06.624Z,24.50
2018-12-01T13:17:34.323Z,23.63
2018-12-01T13:20:02.024Z,22.67
2018-12-01T13:22:29.784Z,23.67
2018-12-01T13:24:57.541Z,23.87
2018-12-01T13:27:25.259Z,23.10
2018-12-01T13:29:53.004Z,24.10
2018-12-01T13:32:20.728Z,23.30
2018-12-01T13:34:48.504Z,23.27
2018-12-01T13:37:18.342Z,22.87
2018-12-01T13:39:43.961Z,24.30
2018-12-01T13:42:11.652Z,25.20
2018-12-01T13:44:39.311Z,24.07
2018-12-01T13:47:06.989Z,23.33
2018-12-01T13:49:34.708Z,28.33
2018-12-01T13:52:02.411Z,27.63
2018-12-01T13:54:30.118Z,23.20
2018-12-01T13:56:57.835Z,24.17
2018-12-01T13:59:25.503Z,24.33
2018-12-01T14:01:53.199Z,23.30
2018-12-01T14:04:20.907Z,24.17
2018-12-01T14:06:48.640Z,26.80
2018-12-01T14:09:16.364Z,24.63
2018-12-01T14:11:44.136Z,23.23
2018-12-01T14:14:11.897Z,23.93
2018-12-01T14:16:39.639Z,23.57
2018-12-01T14:19:07.357Z,23.23
2018-12-01T14:21:35.166Z,21.83
2018-12-01T14:24:02.843Z,21.47
2018-12-01T14:26:30.620Z,22.77
2018-12-01T14:28:58.384Z,22.67
2018-12-01T14:31:26.148Z,22.27
2018-12-01T14:33:53.887Z,21.30
2018-12-01T14:36:21.576Z,23.10
2018-12-01T14:38:49.327Z,23.47
2018-12-01T14:41:17.012Z,23.47
2018-12-01T14:43:44.734Z,24.30
2018-12-01T14:46:12.418Z,22.33
2018-12-01T14:48:40.151Z,23.07
2018-12-01T14:51:07.843Z,22.90
2018-12-01T14:53:35.604Z,29.87
2018-12-01T14:56:03.294Z,23.70
2018-12-01T14:58:31.065Z,21.97
2018-12-01T15:00:58.832Z,22.43
2018-12-01T15:03:26.576Z,23.93
2018-12-01T15:05:54.311Z,23.37
2018-12-01T15:08:21.979Z,23.40
2018-12-01T15:10:49.723Z,22.33
2018-12-01T15:13:17.424Z,24.43
2018-12-01T15:15:45.155Z,23.13
2018-12-01T15:18:12.833Z,22.83
2018-12-01T15:20:40.555Z,25.07
2018-12-01T15:23:08.295Z,24.30
2018-12-01T15:25:36.017Z,24.10
2018-12-01T15:28:03.697Z,23.93
2018-12-01T15:30:31.475Z,24.70
2018-12-01T15:32:59.858Z,25.27
2018-12-01T15:35:27.640Z,24.27
2018-12-01T15:37:55.425Z,23.90
2018-12-01T15:40:23.126Z,24.17
2018-12-01T15:42:50.829Z,25.43
2018-12-01T15:45:20.959Z,24.77
2018-12-01T15:47:48.693Z,24.57
2018-12-01T15:50:17.916Z,23.23
2018-12-01T15:52:48.558Z,23.70
2018-12-01T15:55:17.284Z,24.87
2018-12-01T15:57:45.017Z,27.47
2018-12-01T16:00:13.381Z,27.80
2018-12-01T16:02:42.168Z,24.07
2018-12-01T16:05:10.444Z,23.07
2018-12-01T16:07:39.156Z,24.47
2018-12-01T16:10:10.346Z,23.20
2018-12-01T16:12:38.071Z,23.43
2018-12-01T16:15:08.139Z,23.30
2018-12-01T16:17:35.887Z,23.93
2018-12-01T16:20:04.099Z,24.70
2018-12-01T16:22:32.619Z,23.80
2018-12-01T16:25:00.367Z,22.97
2018-12-01T16:27:28.080Z,23.37
2018-12-01T16:29:55.857Z,24.00
2018-12-01T16:32:23.644Z,24.87
2018-12-01T16:34:51.335Z,24.93
2018-12-01T16:37:18.995Z,23.20
2018-12-01T16:39:46.736Z,24.97
2018-12-01T16:42:14.415Z,23.90
2018-12-01T16:44:42.116Z,23.90
2018-12-01T16:47:09.842Z,24.87
2018-12-01T16:49:37.544Z,23.13
2018-12-01T16:52:05.835Z,24.60
2018-12-01T16:54:33.569Z,24.60
2018-12-01T16:57:01.344Z,23.50
2018-12-01T16:59:29.077Z,23.10
2018-12-01T17:01:56.773Z,23.50
2018-12-01T17:04:24.533Z,22.30
2018-12-01T17:06:52.316Z,23.40
2018-12-01T17:09:20.027Z,23.30
2018-12-01T17:11:48.756Z,24.33
2018-12-01T17:14:16.540Z,23.60
2018-12-01T17:16:44.392Z,23.77
2018-12-01T17:19:12.151Z,24.23
2018-12-01T17:21:41.900Z,23.93
2018-12-01T17:24:09.621Z,23.17
2018-12-01T17:26:37.358Z,21.57
2018-12-01T17:29:05.564Z,23.50
2018-12-01T17:31:33.317Z,23.30
2018-12-01T17:34:01.018Z,23.50
2018-12-01T17:36:28.780Z,24.13
2018-12-01T17:38:56.516Z,23.17
2018-12-01T17:41:27.232Z,23.53
2018-12-01T17:43:55.738Z,23.03
2018-12-01T17:46:23.459Z,22.37
2018-12-01T17:48:51.184Z,22.93
2018-12-01T17:51:18.904Z,22.13
2018-12-01T17:53:47.519Z,24.17
2018-12-01T17:56:15.259Z,23.10
2018-12-01T17:58:42.998Z,23.57
2018-12-01T18:01:10.717Z,24.10
2018-12-01T18:03:38.471Z,22.20
2018-12-01T18:06:07.243Z,22.50
2018-12-01T18:08:35.920Z,21.60
2018-12-01T18:11:03.663Z,21.00
2018-12-01T18:13:32.390Z,20.87
2018-12-01T18:16:00.144Z,20.23
2018-12-01T18:18:27.918Z,21.50
2018-12-01T18:20:55.662Z,27.40
2018-12-01T18:23:23.403Z,24.97
2018-12-01T18:25:51.864Z,21.13
2018-12-01T18:28:20.829Z,18.90
2018-12-01T18:30:48.555Z,19.97
2018-12-01T18:33:18.204Z,20.67
2018-12-01T18:35:45.923Z,19.57
2018-12-01T18:38:13.599Z,18.63
2018-12-01T18:40:41.378Z,18.50
2018-12-01T18:43:09.639Z,20.03
2018-12-01T18:45:38.177Z,19.05
2018-12-01T18:48:06.912Z,18.47
2018-12-01T18:50:34.608Z,18.80
2018-12-01T18:53:02.960Z,18.40
2018-12-01T18:55:31.475Z,19.03
2018-12-01T18:57:59.276Z,19.83
2018-12-01T19:00:28.075Z,18.60
2018-12-01T19:02:56.791Z,19.40
2018-12-01T19:05:24.523Z,21.97
2018-12-01T19:07:52.219Z,18.73
2018-12-01T19:10:19.968Z,19.60
2018-12-01T19:12:47.740Z,19.97
2018-12-01T19:15:16.006Z,18.10
2018-12-01T19:17:44.299Z,18.63
2018-12-01T19:20:12.605Z,18.83
2018-12-01T19:22:41.363Z,17.33
2018-12-01T19:25:09.825Z,19.43
2018-12-01T19:27:37.498Z,18.30
2018-12-01T19:30:06.963Z,18.97
2018-12-01T19:32:34.760Z,17.40
2018-12-01T19:35:02.520Z,17.30
2018-12-01T19:37:30.208Z,18.13
2018-12-01T19:39:57.936Z,18.10
2018-12-01T19:42:25.650Z,18.27
2018-12-01T19:44:53.380Z,18.40
2018-12-01T19:47:21.191Z,18.27
2018-12-01T19:49:48.920Z,18.30
2018-12-01T19:52:16.671Z,19.30
2018-12-01T19:54:44.436Z,18.80
2018-12-01T19:57:12.175Z,18.63
2018-12-01T19:59:39.912Z,18.00
2018-12-01T20:02:07.648Z,16.27
2018-12-01T20:04:35.385Z,17.33
2018-12-01T20:07:03.075Z,17.50
2018-12-01T20:09:30.829Z,17.43
2018-12-01T20:11:58.588Z,16.53
2018-12-01T20:14:26.284Z,17.37
2018-12-01T20:16:54.860Z,17.50
2018-12-01T20:19:22.624Z,18.00
2018-12-01T20:21:50.354Z,17.67
2018-12-01T20:24:18.124Z,18.67
2018-12-01T20:26:45.859Z,17.60
2018-12-01T20:29:13.560Z,17.77
2018-12-01T20:31:41.279Z,18.57
2018-12-01T20:34:09.124Z,17.73
2018-12-01T20:36:38.099Z,17.30
2018-12-01T20:39:08.848Z,17.10
2018-12-01T20:41:38.612Z,16.73
2018-12-01T20:44:06.358Z,15.20
2018-12-01T20:46:34.057Z,16.67
2018-12-01T20:49:01.782Z,16.73
2018-12-01T20:51:29.483Z,15.70
2018-12-01T20:53:57.232Z,16.43
2018-12-01T20:56:25.859Z,16.60
2018-12-01T20:58:53.611Z,16.60
2018-12-01T21:01:21.349Z,17.70
2018-12-01T21:03:50.036Z,17.93
2018-12-01T21:06:17.796Z,17.23
2018-12-01T21:08:45.543Z,16.70
2018-12-01T21:11:13.796Z,16.70
2018-12-01T21:13:42.535Z,17.30
2018-12-01T21:16:10.280Z,15.97
2018-12-01T21:18:37.967Z,16.40
2018-12-01T21:21:05.706Z,16.30
2018-12-01T21:23:33.472Z,16.53
2018-12-01T21:26:01.158Z,15.60
2018-12-01T21:28:28.870Z,15.93
2018-12-01T21:30:56.616Z,15.00
2018-12-01T21:33:27.166Z,15.70
2018-12-01T21:35:54.893Z,15.97
2018-12-01T21:38:22.637Z,15.03
2018-12-01T21:40:50.379Z,15.77
2018-12-01T21:43:18.035Z,15.73
2018-12-01T21:45:45.850Z,14.40
2018-12-01T21:48:13.901Z,14.90
2018-12-01T21:50:42.102Z,14.25
2018-12-01T21:53:10.978Z,15.20
2018-12-01T21:55:38.744Z,14.17
2018-12-01T21:58:06.835Z,14.00
2018-12-01T22:00:34.617Z,15.07
2018-12-01T22:03:03.255Z,13.70
2018-12-01T22:05:34.109Z,13.93
2018-12-01T22:08:01.827Z,14.80
2018-12-01T22:10:29.583Z,13.60
2018-12-01T22:12:57.282Z,13.50
2018-12-01T22:15:25.033Z,13.63
2018-12-01T22:17:52.800Z,13.60
2018-12-01T22:20:21.136Z,13.60
2018-12-01T22:22:49.067Z,13.00
2018-12-01T22:25:16.775Z,12.87
2018-12-01T22:27:44.498Z,15.07
2018-12-01T22:30:14.796Z,14.20
2018-12-01T22:32:42.704Z,14.17
2018-12-01T22:35:13.154Z,14.17
2018-12-01T22:37:40.874Z,14.10
2018-12-01T22:40:26.103Z,14.90
2018-12-01T22:42:56.255Z,13.93
2018-12-01T22:45:23.983Z,13.73
2018-12-01T22:47:51.789Z,14.07
2018-12-01T22:50:19.959Z,15.60
2018-12-01T22:52:47.880Z,15.60
2018-12-01T22:55:16.436Z,15.27
2018-12-01T22:57:44.884Z,15.20
2018-12-01T23:00:14.328Z,15.50
2018-12-01T23:02:42.085Z,15.37
2018-12-01T23:05:09.835Z,16.27
2018-12-01T23:07:37.559Z,16.57
2018-12-01T23:10:08.028Z,16.30
2018-12-01T23:12:35.735Z,16.27
2018-12-01T23:15:03.644Z,17.17
2018-12-01T23:17:31.379Z,17.60
2018-12-01T23:19:59.067Z,16.57
2018-12-01T23:22:26.732Z,16.43
2018-12-01T23:24:54.545Z,16.63
2018-12-01T23:27:22.268Z,16.40
2018-12-01T23:29:49.983Z,17.10
2018-12-01T23:32:17.709Z,16.20
2018-12-01T23:34:45.436Z,17.27
2018-12-01T23:37:13.232Z,15.80
2018-12-01T23:39:40.935Z,15.57
2018-12-01T23:42:08.606Z,15.73
2018-12-01T23:44:36.312Z,15.90
2018-12-01T23:47:04.108Z,16.30
2018-12-01T23:49:31.832Z,15.83
2018-12-01T23:51:59.587Z,16.93
2018-12-01T23:54:27.354Z,16.97
2018-12-01T23:56:55.128Z,16.33
2018-12-01T23:59:22.913Z,15.40
